sensor_id;sensor_type;location;lat;lon;timestamp;P1;durP1;ratioP1;P2;durP2;ratioP2
3995;SDS011;2012;49.794;9.722;2023-12-29T00:00:41;3.13;;;2.40;;
3995;SDS011;2012;49.794;9.722;2023-12-29T00:03:08;4.07;;;2.57;;
3995;SDS011;2012;49.794;9.722;2023-12-29T00:05:35;1.93;;;1.77;;
3995;SDS011;2012;49.794;9.722;2023-12-29T00:08:02;2.73;;;1.83;;
3995;SDS011;2012;49.794;9.722;2023-12-29T00:10:30;2.50;;;2.30;;
3995;SDS011;2012;49.794;9.722;2023-12-29T00:12:56;2.33;;;2.00;;
3995;SDS011;2012;49.794;9.722;2023-12-29T00:15:24;2.20;;;2.00;;
3995;SDS011;2012;49.794;9.722;2023-12-29T00:17:51;1.73;;;1.63;;
3995;SDS011;2012;49.794;9.722;2023-12-29T00:20:19;2.43;;;1.83;;
3995;SDS011;2012;49.794;9.722;2023-12-29T00:23:03;2.57;;;2.07;;
3995;SDS011;2012;49.794;9.722;2023-12-29T00:25:30;4.47;;;2.40;;
3995;SDS011;2012;49.794;9.722;2023-12-29T00:27:56;2.50;;;2.37;;
3995;SDS011;2012;49.794;9.722;2023-12-29T00:30:24;2.80;;;2.60;;
3995;SDS011;2012;49.794;9.722;2023-12-29T00:33:08;2.63;;;2.13;;
3995;SDS011;2012;49.794;9.722;2023-12-29T00:35:39;2.63;;;2.43;;
3995;SDS011;2012;49.794;9.722;2023-12-29T00:38:07;2.70;;;2.50;;
3995;SDS011;2012;49.794;9.722;2023-12-29T00:40:34;2.57;;;2.20;;
3995;SDS011;2012;49.794;9.722;2023-12-29T00:43:01;2.37;;;1.97;;
3995;SDS011;2012;49.794;9.722;2023-12-29T00:45:28;3.50;;;2.37;;
3995;SDS011;2012;49.794;9.722;2023-12-29T00:47:59;2.37;;;2.17;;
3995;SDS011;2012;49.794;9.722;2023-12-29T00:50:26;7.80;;;2.40;;
3995;SDS011;2012;49.794;9.722;2023-12-29T00:52:53;2.17;;;2.00;;
3995;SDS011;2012;49.794;9.722;2023-12-29T00:55:20;2.87;;;2.10;;
3995;SDS011;2012;49.794;9.722;2023-12-29T00:57:47;2.70;;;2.10;;
3995;SDS011;2012;49.794;9.722;2023-12-29T01:00:14;3.00;;;2.30;;
3995;SDS011;2012;49.794;9.722;2023-12-29T01:02:41;2.90;;;2.13;;
3995;SDS011;2012;49.794;9.722;2023-12-29T01:05:08;2.70;;;2.50;;
3995;SDS011;2012;49.794;9.722;2023-12-29T01:07:35;2.80;;;2.30;;
3995;SDS011;2012;49.794;9.722;2023-12-29T01:10:02;4.10;;;2.30;;
3995;SDS011;2012;49.794;9.722;2023-12-29T01:12:29;3.50;;;2.63;;
3995;SDS011;2012;49.794;9.722;2023-12-29T01:14:56;2.47;;;2.27;;
3995;SDS011;2012;49.794;9.722;2023-12-29T01:17:23;2.30;;;2.10;;
3995;SDS011;2012;49.794;9.722;2023-12-29T01:19:50;2.53;;;2.33;;
3995;SDS011;2012;49.794;9.722;2023-12-29T01:22:17;3.20;;;2.10;;
3995;SDS011;2012;49.794;9.722;2023-12-29T01:24:45;2.30;;;2.10;;
3995;SDS011;2012;49.794;9.722;2023-12-29T01:27:12;2.30;;;1.90;;
3995;SDS011;2012;49.794;9.722;2023-12-29T01:29:39;2.87;;;1.90;;
3995;SDS011;2012;49.794;9.722;2023-12-29T01:32:07;2.13;;;2.00;;
3995;SDS011;2012;49.794;9.722;2023-12-29T01:34:34;2.20;;;2.00;;
3995;SDS011;2012;49.794;9.722;2023-12-29T01:37:04;7.90;;;2.10;;
3995;SDS011;2012;49.794;9.722;2023-12-29T01:39:33;3.63;;;1.70;;
3995;SDS011;2012;49.794;9.722;2023-12-29T01:42:00;2.27;;;1.60;;
3995;SDS011;2012;49.794;9.722;2023-12-29T01:44:27;2.07;;;1.90;;
3995;SDS011;2012;49.794;9.722;2023-12-29T01:46:55;2.17;;;1.97;;
3995;SDS011;2012;49.794;9.722;2023-12-29T01:49:25;3.43;;;1.87;;
3995;SDS011;2012;49.794;9.722;2023-12-29T01:51:58;3.00;;;1.50;;
3995;SDS011;2012;49.794;9.722;2023-12-29T01:54:31;2.97;;;2.07;;
3995;SDS011;2012;49.794;9.722;2023-12-29T01:57:00;3.00;;;2.07;;
3995;SDS011;2012;49.794;9.722;2023-12-29T01:59:29;1.50;;;1.40;;
3995;SDS011;2012;49.794;9.722;2023-12-29T02:01:57;1.80;;;1.70;;
3995;SDS011;2012;49.794;9.722;2023-12-29T02:04:25;1.63;;;1.50;;
3995;SDS011;2012;49.794;9.722;2023-12-29T02:06:54;2.50;;;1.57;;
3995;SDS011;2012;49.794;9.722;2023-12-29T02:09:22;1.40;;;1.30;;
3995;SDS011;2012;49.794;9.722;2023-12-29T02:11:49;2.93;;;1.57;;
3995;SDS011;2012;49.794;9.722;2023-12-29T02:14:16;3.23;;;1.70;;
3995;SDS011;2012;49.794;9.722;2023-12-29T02:19:41;1.50;;;1.40;;
3995;SDS011;2012;49.794;9.722;2023-12-29T02:22:12;1.87;;;1.73;;
3995;SDS011;2012;49.794;9.722;2023-12-29T02:24:39;3.40;;;1.33;;
3995;SDS011;2012;49.794;9.722;2023-12-29T02:30:02;2.17;;;1.73;;
3995;SDS011;2012;49.794;9.722;2023-12-29T02:32:48;2.37;;;1.40;;
3995;SDS011;2012;49.794;9.722;2023-12-29T02:35:18;1.50;;;1.40;;
3995;SDS011;2012;49.794;9.722;2023-12-29T02:37:49;1.50;;;1.23;;
3995;SDS011;2012;49.794;9.722;2023-12-29T02:40:16;2.60;;;1.77;;
3995;SDS011;2012;49.794;9.722;2023-12-29T02:42:44;2.17;;;1.57;;
3995;SDS011;2012;49.794;9.722;2023-12-29T02:45:15;2.13;;;1.90;;
3995;SDS011;2012;49.794;9.722;2023-12-29T02:47:42;2.87;;;1.73;;
3995;SDS011;2012;49.794;9.722;2023-12-29T02:50:10;2.60;;;1.70;;
3995;SDS011;2012;49.794;9.722;2023-12-29T02:52:37;5.60;;;1.83;;
3995;SDS011;2012;49.794;9.722;2023-12-29T02:55:04;3.10;;;1.97;;
3995;SDS011;2012;49.794;9.722;2023-12-29T02:57:32;2.13;;;1.87;;
3995;SDS011;2012;49.794;9.722;2023-12-29T03:00:00;6.83;;;2.20;;
3995;SDS011;2012;49.794;9.722;2023-12-29T03:02:27;1.97;;;1.80;;
3995;SDS011;2012;49.794;9.722;2023-12-29T03:04:54;2.97;;;2.47;;
3995;SDS011;2012;49.794;9.722;2023-12-29T03:07:21;9.60;;;2.60;;
3995;SDS011;2012;49.794;9.722;2023-12-29T03:09:47;4.57;;;2.23;;
3995;SDS011;2012;49.794;9.722;2023-12-29T03:12:14;2.17;;;2.07;;
3995;SDS011;2012;49.794;9.722;2023-12-29T03:14:41;5.83;;;2.27;;
3995;SDS011;2012;49.794;9.722;2023-12-29T03:17:08;4.07;;;2.40;;
3995;SDS011;2012;49.794;9.722;2023-12-29T03:19:35;3.97;;;2.67;;
3995;SDS011;2012;49.794;9.722;2023-12-29T03:22:02;4.43;;;2.30;;
3995;SDS011;2012;49.794;9.722;2023-12-29T03:24:29;2.50;;;2.30;;
3995;SDS011;2012;49.794;9.722;2023-12-29T03:26:57;6.50;;;2.50;;
3995;SDS011;2012;49.794;9.722;2023-12-29T03:29:23;1.90;;;1.80;;
3995;SDS011;2012;49.794;9.722;2023-12-29T03:31:52;4.67;;;2.50;;
3995;SDS011;2012;49.794;9.722;2023-12-29T03:34:19;2.73;;;2.30;;
3995;SDS011;2012;49.794;9.722;2023-12-29T03:36:47;3.43;;;2.70;;
3995;SDS011;2012;49.794;9.722;2023-12-29T03:39:14;2.97;;;2.50;;
3995;SDS011;2012;49.794;9.722;2023-12-29T03:41:41;3.23;;;2.67;;
3995;SDS011;2012;49.794;9.722;2023-12-29T03:44:08;2.77;;;2.57;;
3995;SDS011;2012;49.794;9.722;2023-12-29T03:46:35;3.50;;;2.20;;
3995;SDS011;2012;49.794;9.722;2023-12-29T03:49:02;3.20;;;1.70;;
3995;SDS011;2012;49.794;9.722;2023-12-29T03:51:29;2.10;;;1.90;;
3995;SDS011;2012;49.794;9.722;2023-12-29T03:53:57;3.07;;;2.30;;
3995;SDS011;2012;49.794;9.722;2023-12-29T03:56:25;2.07;;;1.93;;
3995;SDS011;2012;49.794;9.722;2023-12-29T03:58:52;2.10;;;1.70;;
3995;SDS011;2012;49.794;9.722;2023-12-29T04:01:18;3.63;;;1.93;;
3995;SDS011;2012;49.794;9.722;2023-12-29T04:03:46;2.20;;;2.00;;
3995;SDS011;2012;49.794;9.722;2023-12-29T04:06:13;1.93;;;1.80;;
3995;SDS011;2012;49.794;9.722;2023-12-29T04:08:40;1.57;;;1.47;;
3995;SDS011;2012;49.794;9.722;2023-12-29T04:11:07;2.70;;;1.80;;
3995;SDS011;2012;49.794;9.722;2023-12-29T04:13:34;1.83;;;1.40;;
3995;SDS011;2012;49.794;9.722;2023-12-29T04:16:01;2.50;;;1.50;;
3995;SDS011;2012;49.794;9.722;2023-12-29T04:18:28;2.90;;;1.67;;
3995;SDS011;2012;49.794;9.722;2023-12-29T04:20:55;2.30;;;1.70;;
3995;SDS011;2012;49.794;9.722;2023-12-29T04:23:22;4.00;;;1.47;;
3995;SDS011;2012;49.794;9.722;2023-12-29T04:25:49;1.80;;;1.27;;
3995;SDS011;2012;49.794;9.722;2023-12-29T04:28:16;2.73;;;1.53;;
3995;SDS011;2012;49.794;9.722;2023-12-29T04:30:43;3.33;;;1.70;;
3995;SDS011;2012;49.794;9.722;2023-12-29T04:33:11;1.37;;;1.20;;
3995;SDS011;2012;49.794;9.722;2023-12-29T04:35:37;1.50;;;1.40;;
3995;SDS011;2012;49.794;9.722;2023-12-29T04:38:04;1.40;;;1.30;;
3995;SDS011;2012;49.794;9.722;2023-12-29T04:40:33;2.13;;;1.20;;
3995;SDS011;2012;49.794;9.722;2023-12-29T04:43:00;2.97;;;1.40;;
3995;SDS011;2012;49.794;9.722;2023-12-29T04:45:27;1.83;;;1.50;;
3995;SDS011;2012;49.794;9.722;2023-12-29T04:47:55;1.50;;;1.40;;
3995;SDS011;2012;49.794;9.722;2023-12-29T04:50:22;2.23;;;1.43;;
3995;SDS011;2012;49.794;9.722;2023-12-29T04:52:49;1.50;;;1.40;;
3995;SDS011;2012;49.794;9.722;2023-12-29T04:55:16;6.30;;;1.70;;
3995;SDS011;2012;49.794;9.722;2023-12-29T04:57:43;2.17;;;1.97;;
3995;SDS011;2012;49.794;9.722;2023-12-29T05:00:10;1.63;;;1.27;;
3995;SDS011;2012;49.794;9.722;2023-12-29T05:02:38;4.03;;;1.40;;
3995;SDS011;2012;49.794;9.722;2023-12-29T05:05:05;3.47;;;1.33;;
3995;SDS011;2012;49.794;9.722;2023-12-29T05:07:32;4.83;;;1.20;;
3995;SDS011;2012;49.794;9.722;2023-12-29T05:09:59;2.10;;;1.30;;
3995;SDS011;2012;49.794;9.722;2023-12-29T05:12:26;1.57;;;1.47;;
3995;SDS011;2012;49.794;9.722;2023-12-29T05:14:53;6.30;;;1.50;;
3995;SDS011;2012;49.794;9.722;2023-12-29T05:17:20;1.40;;;1.13;;
3995;SDS011;2012;49.794;9.722;2023-12-29T05:19:47;3.50;;;1.90;;
3995;SDS011;2012;49.794;9.722;2023-12-29T05:22:14;6.93;;;2.03;;
3995;SDS011;2012;49.794;9.722;2023-12-29T05:24:44;1.83;;;1.67;;
3995;SDS011;2012;49.794;9.722;2023-12-29T05:27:11;2.63;;;1.97;;
3995;SDS011;2012;49.794;9.722;2023-12-29T05:29:38;2.73;;;2.50;;
3995;SDS011;2012;49.794;9.722;2023-12-29T05:32:06;8.30;;;5.40;;
3995;SDS011;2012;49.794;9.722;2023-12-29T05:34:33;3.00;;;2.37;;
3995;SDS011;2012;49.794;9.722;2023-12-29T05:37:00;4.37;;;3.40;;
3995;SDS011;2012;49.794;9.722;2023-12-29T05:39:27;2.93;;;2.30;;
3995;SDS011;2012;49.794;9.722;2023-12-29T05:41:55;5.50;;;3.80;;
3995;SDS011;2012;49.794;9.722;2023-12-29T05:44:22;4.70;;;1.80;;
3995;SDS011;2012;49.794;9.722;2023-12-29T05:46:49;1.57;;;1.47;;
3995;SDS011;2012;49.794;9.722;2023-12-29T05:49:16;4.83;;;2.77;;
3995;SDS011;2012;49.794;9.722;2023-12-29T05:51:44;4.73;;;2.53;;
3995;SDS011;2012;49.794;9.722;2023-12-29T05:54:11;5.33;;;2.73;;
3995;SDS011;2012;49.794;9.722;2023-12-29T05:56:38;3.90;;;2.27;;
3995;SDS011;2012;49.794;9.722;2023-12-29T05:59:04;2.83;;;2.57;;
3995;SDS011;2012;49.794;9.722;2023-12-29T06:01:31;2.30;;;2.07;;
3995;SDS011;2012;49.794;9.722;2023-12-29T06:03:58;3.80;;;2.47;;
3995;SDS011;2012;49.794;9.722;2023-12-29T06:06:25;3.53;;;2.20;;
3995;SDS011;2012;49.794;9.722;2023-12-29T06:08:52;2.50;;;1.87;;
3995;SDS011;2012;49.794;9.722;2023-12-29T06:11:19;3.27;;;2.00;;
3995;SDS011;2012;49.794;9.722;2023-12-29T06:13:47;4.00;;;2.30;;
3995;SDS011;2012;49.794;9.722;2023-12-29T06:16:17;2.80;;;2.10;;
3995;SDS011;2012;49.794;9.722;2023-12-29T06:18:48;4.70;;;1.70;;
3995;SDS011;2012;49.794;9.722;2023-12-29T06:21:15;2.33;;;2.13;;
3995;SDS011;2012;49.794;9.722;2023-12-29T06:23:42;2.07;;;1.97;;
3995;SDS011;2012;49.794;9.722;2023-12-29T06:26:19;3.53;;;2.20;;
3995;SDS011;2012;49.794;9.722;2023-12-29T06:28:46;1.97;;;1.87;;
3995;SDS011;2012;49.794;9.722;2023-12-29T06:31:13;4.80;;;2.00;;
3995;SDS011;2012;49.794;9.722;2023-12-29T06:33:41;3.67;;;1.97;;
3995;SDS011;2012;49.794;9.722;2023-12-29T06:36:09;2.60;;;1.87;;
3995;SDS011;2012;49.794;9.722;2023-12-29T06:38:37;6.50;;;2.10;;
3995;SDS011;2012;49.794;9.722;2023-12-29T06:41:04;2.00;;;1.70;;
3995;SDS011;2012;49.794;9.722;2023-12-29T06:43:31;3.67;;;2.07;;
3995;SDS011;2012;49.794;9.722;2023-12-29T06:45:57;1.83;;;1.73;;
3995;SDS011;2012;49.794;9.722;2023-12-29T06:48:24;2.27;;;2.07;;
3995;SDS011;2012;49.794;9.722;2023-12-29T06:50:51;2.40;;;1.83;;
3995;SDS011;2012;49.794;9.722;2023-12-29T06:53:18;2.17;;;1.80;;
3995;SDS011;2012;49.794;9.722;2023-12-29T06:55:46;2.47;;;2.27;;
3995;SDS011;2012;49.794;9.722;2023-12-29T06:58:14;1.87;;;1.70;;
3995;SDS011;2012;49.794;9.722;2023-12-29T07:00:40;3.20;;;2.90;;
3995;SDS011;2012;49.794;9.722;2023-12-29T07:03:12;16.53;;;4.10;;
3995;SDS011;2012;49.794;9.722;2023-12-29T07:05:40;4.57;;;2.37;;
3995;SDS011;2012;49.794;9.722;2023-12-29T07:08:08;21.83;;;10.30;;
3995;SDS011;2012;49.794;9.722;2023-12-29T07:10:35;18.77;;;8.47;;
3995;SDS011;2012;49.794;9.722;2023-12-29T07:13:02;8.37;;;4.70;;
3995;SDS011;2012;49.794;9.722;2023-12-29T07:15:29;1.90;;;1.80;;
3995;SDS011;2012;49.794;9.722;2023-12-29T07:17:56;6.20;;;1.97;;
3995;SDS011;2012;49.794;9.722;2023-12-29T07:20:23;1.90;;;1.80;;
3995;SDS011;2012;49.794;9.722;2023-12-29T07:22:50;2.70;;;1.87;;
3995;SDS011;2012;49.794;9.722;2023-12-29T07:25:17;6.27;;;2.30;;
3995;SDS011;2012;49.794;9.722;2023-12-29T07:27:44;2.47;;;2.27;;
3995;SDS011;2012;49.794;9.722;2023-12-29T07:30:11;2.90;;;1.90;;
3995;SDS011;2012;49.794;9.722;2023-12-29T07:32:38;2.47;;;1.97;;
3995;SDS011;2012;49.794;9.722;2023-12-29T07:35:05;1.60;;;1.50;;
3995;SDS011;2012;49.794;9.722;2023-12-29T07:37:32;2.10;;;1.50;;
3995;SDS011;2012;49.794;9.722;2023-12-29T07:39:59;1.80;;;1.63;;
3995;SDS011;2012;49.794;9.722;2023-12-29T07:42:26;1.50;;;1.40;;
3995;SDS011;2012;49.794;9.722;2023-12-29T07:44:55;3.40;;;1.50;;
3995;SDS011;2012;49.794;9.722;2023-12-29T07:47:22;4.23;;;1.73;;
3995;SDS011;2012;49.794;9.722;2023-12-29T07:49:49;2.33;;;1.43;;
3995;SDS011;2012;49.794;9.722;2023-12-29T07:52:16;1.97;;;1.47;;
3995;SDS011;2012;49.794;9.722;2023-12-29T07:54:43;1.50;;;1.40;;
3995;SDS011;2012;49.794;9.722;2023-12-29T07:57:10;2.30;;;1.27;;
3995;SDS011;2012;49.794;9.722;2023-12-29T07:59:37;1.23;;;1.13;;
3995;SDS011;2012;49.794;9.722;2023-12-29T08:02:04;2.00;;;1.63;;
3995;SDS011;2012;49.794;9.722;2023-12-29T08:04:31;2.33;;;1.20;;
3995;SDS011;2012;49.794;9.722;2023-12-29T08:06:58;1.23;;;1.10;;
3995;SDS011;2012;49.794;9.722;2023-12-29T08:09:25;1.77;;;1.20;;
3995;SDS011;2012;49.794;9.722;2023-12-29T08:11:52;1.30;;;1.13;;
3995;SDS011;2012;49.794;9.722;2023-12-29T08:14:19;2.90;;;1.43;;
3995;SDS011;2012;49.794;9.722;2023-12-29T08:16:46;2.30;;;1.20;;
3995;SDS011;2012;49.794;9.722;2023-12-29T08:19:13;1.67;;;1.37;;
3995;SDS011;2012;49.794;9.722;2023-12-29T08:21:41;5.03;;;1.30;;
3995;SDS011;2012;49.794;9.722;2023-12-29T08:24:08;2.10;;;1.27;;
3995;SDS011;2012;49.794;9.722;2023-12-29T08:26:41;2.60;;;1.60;;
3995;SDS011;2012;49.794;9.722;2023-12-29T08:29:10;2.53;;;1.00;;
3995;SDS011;2012;49.794;9.722;2023-12-29T08:31:37;1.67;;;1.00;;
3995;SDS011;2012;49.794;9.722;2023-12-29T08:34:04;4.03;;;1.20;;
3995;SDS011;2012;49.794;9.722;2023-12-29T08:36:31;1.40;;;1.30;;
3995;SDS011;2012;49.794;9.722;2023-12-29T08:38:57;1.10;;;1.03;;
3995;SDS011;2012;49.794;9.722;2023-12-29T08:41:24;2.13;;;1.50;;
3995;SDS011;2012;49.794;9.722;2023-12-29T08:43:51;2.93;;;2.00;;
3995;SDS011;2012;49.794;9.722;2023-12-29T08:46:18;3.70;;;2.30;;
3995;SDS011;2012;49.794;9.722;2023-12-29T08:48:45;5.20;;;3.50;;
3995;SDS011;2012;49.794;9.722;2023-12-29T08:51:13;2.27;;;1.90;;
3995;SDS011;2012;49.794;9.722;2023-12-29T08:53:40;7.00;;;3.17;;
3995;SDS011;2012;49.794;9.722;2023-12-29T08:56:07;6.43;;;3.53;;
3995;SDS011;2012;49.794;9.722;2023-12-29T08:58:33;4.30;;;2.50;;
3995;SDS011;2012;49.794;9.722;2023-12-29T09:01:00;2.03;;;1.47;;
3995;SDS011;2012;49.794;9.722;2023-12-29T09:03:27;12.57;;;5.87;;
3995;SDS011;2012;49.794;9.722;2023-12-29T09:05:55;4.73;;;2.40;;
3995;SDS011;2012;49.794;9.722;2023-12-29T09:08:23;5.57;;;3.07;;
3995;SDS011;2012;49.794;9.722;2023-12-29T09:10:50;5.50;;;2.00;;
3995;SDS011;2012;49.794;9.722;2023-12-29T09:13:17;8.03;;;2.43;;
3995;SDS011;2012;49.794;9.722;2023-12-29T09:15:45;7.20;;;2.70;;
3995;SDS011;2012;49.794;9.722;2023-12-29T09:18:11;6.33;;;4.00;;
3995;SDS011;2012;49.794;9.722;2023-12-29T09:20:38;2.20;;;1.60;;
3995;SDS011;2012;49.794;9.722;2023-12-29T09:23:06;4.07;;;1.53;;
3995;SDS011;2012;49.794;9.722;2023-12-29T09:25:32;1.00;;;0.90;;
3995;SDS011;2012;49.794;9.722;2023-12-29T09:27:59;3.43;;;1.03;;
3995;SDS011;2012;49.794;9.722;2023-12-29T09:30:27;1.10;;;1.00;;
3995;SDS011;2012;49.794;9.722;2023-12-29T09:32:53;2.17;;;0.90;;
3995;SDS011;2012;49.794;9.722;2023-12-29T09:35:20;1.10;;;0.90;;
3995;SDS011;2012;49.794;9.722;2023-12-29T09:37:47;7.83;;;1.30;;
3995;SDS011;2012;49.794;9.722;2023-12-29T09:40:17;1.00;;;0.90;;
3995;SDS011;2012;49.794;9.722;2023-12-29T09:42:44;1.30;;;1.20;;
3995;SDS011;2012;49.794;9.722;2023-12-29T09:45:13;1.93;;;1.00;;
3995;SDS011;2012;49.794;9.722;2023-12-29T09:47:41;1.63;;;1.30;;
3995;SDS011;2012;49.794;9.722;2023-12-29T09:50:12;1.43;;;1.13;;
3995;SDS011;2012;49.794;9.722;2023-12-29T09:52:40;1.30;;;1.20;;
3995;SDS011;2012;49.794;9.722;2023-12-29T09:55:07;3.00;;;1.33;;
3995;SDS011;2012;49.794;9.722;2023-12-29T09:57:38;2.90;;;1.77;;
3995;SDS011;2012;49.794;9.722;2023-12-29T10:00:09;1.10;;;1.00;;
3995;SDS011;2012;49.794;9.722;2023-12-29T10:02:38;1.50;;;1.40;;
3995;SDS011;2012;49.794;9.722;2023-12-29T10:05:05;2.03;;;1.80;;
3995;SDS011;2012;49.794;9.722;2023-12-29T10:07:35;1.40;;;1.00;;
3995;SDS011;2012;49.794;9.722;2023-12-29T10:10:05;4.20;;;2.07;;
3995;SDS011;2012;49.794;9.722;2023-12-29T10:12:33;1.80;;;1.70;;
3995;SDS011;2012;49.794;9.722;2023-12-29T10:15:24;1.40;;;1.30;;
3995;SDS011;2012;49.794;9.722;2023-12-29T10:18:08;3.77;;;1.50;;
3995;SDS011;2012;49.794;9.722;2023-12-29T10:20:50;1.73;;;1.40;;
3995;SDS011;2012;49.794;9.722;2023-12-29T10:23:32;8.50;;;2.10;;
3995;SDS011;2012;49.794;9.722;2023-12-29T10:26:07;1.37;;;0.97;;
3995;SDS011;2012;49.794;9.722;2023-12-29T10:28:36;3.30;;;1.47;;
3995;SDS011;2012;49.794;9.722;2023-12-29T10:31:06;2.23;;;1.30;;
3995;SDS011;2012;49.794;9.722;2023-12-29T10:33:40;1.20;;;1.10;;
3995;SDS011;2012;49.794;9.722;2023-12-29T10:36:08;1.57;;;1.40;;
3995;SDS011;2012;49.794;9.722;2023-12-29T10:38:38;2.60;;;1.20;;
3995;SDS011;2012;49.794;9.722;2023-12-29T10:41:12;1.60;;;0.90;;
3995;SDS011;2012;49.794;9.722;2023-12-29T10:43:41;3.57;;;1.53;;
3995;SDS011;2012;49.794;9.722;2023-12-29T10:46:09;2.70;;;1.43;;
3995;SDS011;2012;49.794;9.722;2023-12-29T10:48:37;2.73;;;1.50;;
3995;SDS011;2012;49.794;9.722;2023-12-29T10:51:05;1.40;;;1.30;;
3995;SDS011;2012;49.794;9.722;2023-12-29T10:53:33;1.40;;;1.30;;
3995;SDS011;2012;49.794;9.722;2023-12-29T10:56:10;6.63;;;1.20;;
3995;SDS011;2012;49.794;9.722;2023-12-29T10:59:02;1.80;;;1.00;;
3995;SDS011;2012;49.794;9.722;2023-12-29T11:01:30;2.30;;;1.10;;
3995;SDS011;2012;49.794;9.722;2023-12-29T11:04:02;3.37;;;1.43;;
3995;SDS011;2012;49.794;9.722;2023-12-29T11:06:51;1.27;;;1.00;;
3995;SDS011;2012;49.794;9.722;2023-12-29T11:09:31;3.53;;;1.30;;
3995;SDS011;2012;49.794;9.722;2023-12-29T11:12:02;1.10;;;1.00;;
3995;SDS011;2012;49.794;9.722;2023-12-29T11:14:30;1.50;;;1.00;;
3995;SDS011;2012;49.794;9.722;2023-12-29T11:16:59;2.17;;;1.50;;
3995;SDS011;2012;49.794;9.722;2023-12-29T11:19:27;1.40;;;1.20;;
3995;SDS011;2012;49.794;9.722;2023-12-29T11:21:55;4.20;;;2.10;;
3995;SDS011;2012;49.794;9.722;2023-12-29T11:24:23;2.70;;;1.80;;
3995;SDS011;2012;49.794;9.722;2023-12-29T11:27:03;2.37;;;1.17;;
3995;SDS011;2012;49.794;9.722;2023-12-29T11:29:33;3.97;;;1.07;;
3995;SDS011;2012;49.794;9.722;2023-12-29T11:32:01;1.23;;;1.10;;
3995;SDS011;2012;49.794;9.722;2023-12-29T11:34:37;1.33;;;1.00;;
3995;SDS011;2012;49.794;9.722;2023-12-29T11:42:34;2.23;;;1.00;;
3995;SDS011;2012;49.794;9.722;2023-12-29T11:45:24;0.90;;;0.90;;
3995;SDS011;2012;49.794;9.722;2023-12-29T11:47:54;1.20;;;1.10;;
3995;SDS011;2012;49.794;9.722;2023-12-29T11:50:30;3.20;;;1.23;;
3995;SDS011;2012;49.794;9.722;2023-12-29T11:53:06;5.03;;;1.83;;
3995;SDS011;2012;49.794;9.722;2023-12-29T11:55:38;1.83;;;1.47;;
3995;SDS011;2012;49.794;9.722;2023-12-29T11:58:24;2.37;;;1.60;;
3995;SDS011;2012;49.794;9.722;2023-12-29T12:00:55;4.23;;;1.20;;
3995;SDS011;2012;49.794;9.722;2023-12-29T12:03:24;5.10;;;1.20;;
3995;SDS011;2012;49.794;9.722;2023-12-29T12:05:53;1.87;;;1.00;;
3995;SDS011;2012;49.794;9.722;2023-12-29T12:08:29;1.30;;;1.20;;
3995;SDS011;2012;49.794;9.722;2023-12-29T12:10:57;1.00;;;0.90;;
3995;SDS011;2012;49.794;9.722;2023-12-29T12:13:45;1.00;;;1.00;;
3995;SDS011;2012;49.794;9.722;2023-12-29T12:19:13;2.77;;;1.70;;
3995;SDS011;2012;49.794;9.722;2023-12-29T12:21:41;2.90;;;1.87;;
3995;SDS011;2012;49.794;9.722;2023-12-29T12:24:17;1.80;;;1.40;;
3995;SDS011;2012;49.794;9.722;2023-12-29T12:26:45;1.97;;;1.10;;
3995;SDS011;2012;49.794;9.722;2023-12-29T12:29:13;2.33;;;1.97;;
3995;SDS011;2012;49.794;9.722;2023-12-29T12:32:02;2.83;;;1.20;;
3995;SDS011;2012;49.794;9.722;2023-12-29T12:34:30;1.90;;;1.10;;
3995;SDS011;2012;49.794;9.722;2023-12-29T12:37:03;3.60;;;1.20;;
3995;SDS011;2012;49.794;9.722;2023-12-29T12:39:42;1.70;;;1.07;;
3995;SDS011;2012;49.794;9.722;2023-12-29T12:42:09;3.00;;;1.50;;
3995;SDS011;2012;49.794;9.722;2023-12-29T12:44:40;1.50;;;1.00;;
3995;SDS011;2012;49.794;9.722;2023-12-29T12:47:09;3.00;;;1.30;;
3995;SDS011;2012;49.794;9.722;2023-12-29T12:49:44;3.23;;;1.20;;
3995;SDS011;2012;49.794;9.722;2023-12-29T12:52:12;5.60;;;1.33;;
3995;SDS011;2012;49.794;9.722;2023-12-29T12:54:39;1.60;;;1.23;;
3995;SDS011;2012;49.794;9.722;2023-12-29T12:57:06;3.80;;;1.50;;
3995;SDS011;2012;49.794;9.722;2023-12-29T12:59:34;1.60;;;1.43;;
3995;SDS011;2012;49.794;9.722;2023-12-29T13:02:02;1.17;;;1.00;;
3995;SDS011;2012;49.794;9.722;2023-12-29T13:04:32;1.37;;;1.10;;
3995;SDS011;2012;49.794;9.722;2023-12-29T13:06:59;2.97;;;2.23;;
3995;SDS011;2012;49.794;9.722;2023-12-29T13:09:26;2.90;;;1.90;;
3995;SDS011;2012;49.794;9.722;2023-12-29T13:12:06;2.47;;;1.30;;
3995;SDS011;2012;49.794;9.722;2023-12-29T13:14:40;4.17;;;1.10;;
3995;SDS011;2012;49.794;9.722;2023-12-29T13:17:10;1.23;;;1.13;;
3995;SDS011;2012;49.794;9.722;2023-12-29T13:19:38;2.40;;;1.23;;
3995;SDS011;2012;49.794;9.722;2023-12-29T13:22:06;3.73;;;1.20;;
3995;SDS011;2012;49.794;9.722;2023-12-29T13:24:34;2.20;;;1.60;;
3995;SDS011;2012;49.794;9.722;2023-12-29T13:27:05;2.63;;;1.30;;
3995;SDS011;2012;49.794;9.722;2023-12-29T13:29:35;1.10;;;1.00;;
3995;SDS011;2012;49.794;9.722;2023-12-29T13:37:25;1.00;;;0.90;;
3995;SDS011;2012;49.794;9.722;2023-12-29T13:42:36;2.40;;;0.80;;
3995;SDS011;2012;49.794;9.722;2023-12-29T13:45:07;1.03;;;1.00;;
3995;SDS011;2012;49.794;9.722;2023-12-29T13:47:35;2.63;;;0.83;;
3995;SDS011;2012;49.794;9.722;2023-12-29T13:50:03;3.70;;;1.47;;
3995;SDS011;2012;49.794;9.722;2023-12-29T13:52:32;1.90;;;1.10;;
3995;SDS011;2012;49.794;9.722;2023-12-29T13:55:01;1.20;;;1.10;;
3995;SDS011;2012;49.794;9.722;2023-12-29T13:57:33;1.20;;;1.10;;
3995;SDS011;2012;49.794;9.722;2023-12-29T14:03:05;2.73;;;1.00;;
3995;SDS011;2012;49.794;9.722;2023-12-29T14:05:43;1.10;;;1.00;;
3995;SDS011;2012;49.794;9.722;2023-12-29T14:08:18;1.33;;;1.00;;
3995;SDS011;2012;49.794;9.722;2023-12-29T14:10:51;5.10;;;0.90;;
3995;SDS011;2012;49.794;9.722;2023-12-29T14:13:19;3.80;;;3.40;;
3995;SDS011;2012;49.794;9.722;2023-12-29T14:15:47;2.27;;;1.30;;
3995;SDS011;2012;49.794;9.722;2023-12-29T14:20:47;2.47;;;0.97;;
3995;SDS011;2012;49.794;9.722;2023-12-29T14:23:17;1.47;;;0.87;;
3995;SDS011;2012;49.794;9.722;2023-12-29T14:25:44;2.50;;;1.10;;
3995;SDS011;2012;49.794;9.722;2023-12-29T14:28:17;1.50;;;1.37;;
3995;SDS011;2012;49.794;9.722;2023-12-29T14:30:45;2.53;;;1.10;;
3995;SDS011;2012;49.794;9.722;2023-12-29T14:33:12;1.77;;;1.10;;
3995;SDS011;2012;49.794;9.722;2023-12-29T14:35:39;1.00;;;0.90;;
3995;SDS011;2012;49.794;9.722;2023-12-29T14:38:06;2.47;;;0.90;;
3995;SDS011;2012;49.794;9.722;2023-12-29T14:40:33;1.63;;;0.97;;
3995;SDS011;2012;49.794;9.722;2023-12-29T14:43:01;1.70;;;1.20;;
3995;SDS011;2012;49.794;9.722;2023-12-29T14:45:28;2.13;;;1.00;;
3995;SDS011;2012;49.794;9.722;2023-12-29T14:47:57;0.90;;;0.90;;
3995;SDS011;2012;49.794;9.722;2023-12-29T14:50:26;2.20;;;1.10;;
3995;SDS011;2012;49.794;9.722;2023-12-29T14:52:53;1.70;;;1.40;;
3995;SDS011;2012;49.794;9.722;2023-12-29T14:55:20;3.27;;;1.17;;
3995;SDS011;2012;49.794;9.722;2023-12-29T14:57:47;1.00;;;1.00;;
3995;SDS011;2012;49.794;9.722;2023-12-29T15:00:14;1.57;;;1.27;;
3995;SDS011;2012;49.794;9.722;2023-12-29T15:02:42;1.37;;;1.27;;
3995;SDS011;2012;49.794;9.722;2023-12-29T15:05:09;2.60;;;1.10;;
3995;SDS011;2012;49.794;9.722;2023-12-29T15:07:36;1.80;;;1.30;;
3995;SDS011;2012;49.794;9.722;2023-12-29T15:10:03;1.63;;;1.30;;
3995;SDS011;2012;49.794;9.722;2023-12-29T15:12:30;2.77;;;1.70;;
3995;SDS011;2012;49.794;9.722;2023-12-29T15:14:57;3.93;;;1.33;;
3995;SDS011;2012;49.794;9.722;2023-12-29T15:17:24;1.30;;;1.20;;
3995;SDS011;2012;49.794;9.722;2023-12-29T15:19:51;1.43;;;1.27;;
3995;SDS011;2012;49.794;9.722;2023-12-29T15:22:18;1.93;;;1.20;;
3995;SDS011;2012;49.794;9.722;2023-12-29T15:24:45;1.13;;;1.07;;
3995;SDS011;2012;49.794;9.722;2023-12-29T15:27:12;2.20;;;1.20;;
3995;SDS011;2012;49.794;9.722;2023-12-29T15:29:40;3.53;;;1.50;;
3995;SDS011;2012;49.794;9.722;2023-12-29T15:32:06;1.40;;;1.10;;
3995;SDS011;2012;49.794;9.722;2023-12-29T15:34:33;1.13;;;1.03;;
3995;SDS011;2012;49.794;9.722;2023-12-29T15:37:00;2.30;;;1.50;;
3995;SDS011;2012;49.794;9.722;2023-12-29T15:39:29;1.30;;;1.20;;
3995;SDS011;2012;49.794;9.722;2023-12-29T15:41:56;1.80;;;1.70;;
3995;SDS011;2012;49.794;9.722;2023-12-29T15:44:23;1.80;;;1.10;;
3995;SDS011;2012;49.794;9.722;2023-12-29T15:46:50;1.03;;;0.93;;
3995;SDS011;2012;49.794;9.722;2023-12-29T15:49:18;1.23;;;1.10;;
3995;SDS011;2012;49.794;9.722;2023-12-29T15:51:45;1.10;;;0.93;;